Wyalusing, Pennsylvania
Current Conditions -  °F | °C
As of 2:54 PM on Sunday 23 Nov 2014 (Local Time) from KAVP Reporting Station
Clear Clear  
Wind Chill: 13°   Ceiling: Unl
Heat Index: 13°   Visibility: 10mi
Dew Point: -4°   Wind: 7mph
Humidity: 29%   Direction: 290°WNW
Pressure: 30.07"   Gusts: NA
Location:  41.67°N, 76.26°W
Report Text: KAVP 231954Z 29006KT 10SM CLR 13/M04 A3007 RMK AO2 SLP183 T01331044
Loading
Personal Weather Stations






























Interactive Weather Map New forecast layout! Learn more

10-Day Weather Forecast

Advertisements
Track Severe Weather on mobile